Time;durP1;ratioP1;P1;durP2;ratioP2;P2;SDS_P1;SDS_P2;PMS_P1;PMS_P2;Temp;Humidity;BMP_temperature;BMP_pressure;BME280_temperature;BME280_humidity;BME280_pressure;Samples;Min_cycle;Max_cycle;Signal;HPM_P1;HPM_P2
2023/12/25 00:00:21;;;;;;;76.93;39.13;;;;;;;;;;5010495;28;20103;-87
2023/12/25 00:02:46;;;;;;;30.30;14.40;;;;;;;;;;5010286;28;20459;-86
2023/12/25 00:05:12;;;;;;;39.47;21.05;;;;;;;;;;5024094;28;20025;-87
2023/12/25 00:07:38;;;;;;;62.85;34.50;;;;;;;;;;5001366;28;20056;-86
2023/12/25 00:10:03;;;;;;;80.40;43.67;;;;;;;;;;5010427;28;20033;-87
2023/12/25 00:12:29;;;;;;;135.07;76.97;;;;;;;;;;5010367;28;20075;-86
2023/12/25 00:14:54;;;;;;;119.53;66.82;;;;;;;;;;5013237;28;20025;-87
2023/12/25 00:17:19;;;;;;;96.07;54.00;;;;;;;;;;4995096;28;20104;-87
2023/12/25 00:19:45;;;;;;;86.72;45.80;;;;;;;;;;5022032;28;20028;-87
2023/12/25 00:22:10;;;;;;;57.10;30.90;;;;;;;;;;4990677;28;20053;-87
2023/12/25 00:24:35;;;;;;;129.38;68.40;;;;;;;;;;4999193;28;20065;-87
2023/12/25 00:27:01;;;;;;;41.85;23.73;;;;;;;;;;5010478;28;20029;-86
2023/12/25 00:29:26;;;;;;;30.33;16.67;;;;;;;;;;5027616;28;20180;-87
2023/12/25 00:31:51;;;;;;;25.83;12.43;;;;;;;;;;5010000;28;20041;-87
2023/12/25 00:34:16;;;;;;;32.08;15.82;;;;;;;;;;5009663;28;20018;-87
2023/12/25 00:36:42;;;;;;;33.28;15.40;;;;;;;;;;5027739;28;20049;-87
2023/12/25 00:39:08;;;;;;;20.52;9.80;;;;;;;;;;5026483;28;20056;-87
2023/12/25 00:41:33;;;;;;;30.65;15.50;;;;;;;;;;5026545;28;20021;-86
2023/12/25 00:43:58;;;;;;;38.90;19.42;;;;;;;;;;5027315;28;20053;-87
2023/12/25 00:46:24;;;;;;;35.20;19.35;;;;;;;;;;5026949;28;20030;-87
2023/12/25 00:48:49;;;;;;;46.35;24.55;;;;;;;;;;5009975;28;20031;-87
2023/12/25 00:51:14;;;;;;;46.33;21.33;;;;;;;;;;5020006;28;20035;-87
2023/12/25 00:53:39;;;;;;;36.50;17.65;;;;;;;;;;5026245;28;20025;-87
2023/12/25 00:56:05;;;;;;;36.72;21.30;;;;;;;;;;5019827;28;20017;-87
2023/12/25 00:58:30;;;;;;;26.85;14.90;;;;;;;;;;5026882;28;20499;-86
2023/12/25 01:00:56;;;;;;;27.90;15.55;;;;;;;;;;5012556;28;20059;-87
2023/12/25 01:03:21;;;;;;;42.67;23.27;;;;;;;;;;5009218;28;20117;-86
2023/12/25 01:05:46;;;;;;;30.52;17.60;;;;;;;;;;5027000;28;20053;-86
2023/12/25 01:08:11;;;;;;;33.88;19.27;;;;;;;;;;5009813;28;20490;-87
2023/12/25 01:10:37;;;;;;;33.60;18.88;;;;;;;;;;5009379;28;20044;-86
2023/12/25 01:13:02;;;;;;;34.28;15.95;;;;;;;;;;5027201;28;20017;-87
2023/12/25 01:15:27;;;;;;;29.13;15.88;;;;;;;;;;5009001;28;20025;-87
2023/12/25 01:17:53;;;;;;;24.17;13.32;;;;;;;;;;5009326;28;20156;-87
2023/12/25 01:20:18;;;;;;;21.95;11.98;;;;;;;;;;5011865;28;20025;-87
2023/12/25 01:22:43;;;;;;;20.83;11.73;;;;;;;;;;5022496;28;20029;-87
2023/12/25 01:25:08;;;;;;;17.58;9.30;;;;;;;;;;5008929;28;20111;-86
2023/12/25 01:27:35;;;;;;;23.83;12.38;;;;;;;;;;5027329;28;20063;-86
2023/12/25 01:30:01;;;;;;;30.67;15.63;;;;;;;;;;5009690;28;20152;-87
2023/12/25 01:32:26;;;;;;;34.30;18.27;;;;;;;;;;5026577;28;20516;-87
2023/12/25 01:34:51;;;;;;;37.67;19.67;;;;;;;;;;5027750;28;20020;-87
2023/12/25 01:37:17;;;;;;;35.10;17.08;;;;;;;;;;5011305;28;20569;-87
2023/12/25 01:39:42;;;;;;;26.77;13.52;;;;;;;;;;5009502;28;20042;-86
2023/12/25 01:42:07;;;;;;;24.17;12.65;;;;;;;;;;4989821;28;20022;-86
2023/12/25 01:44:33;;;;;;;19.65;10.20;;;;;;;;;;4989697;28;20084;-87
2023/12/25 01:46:58;;;;;;;23.67;12.25;;;;;;;;;;4989863;28;20117;-86
2023/12/25 01:49:24;;;;;;;24.30;11.18;;;;;;;;;;5009139;28;20395;-87
2023/12/25 01:51:50;;;;;;;22.38;10.35;;;;;;;;;;5009412;28;20018;-87
2023/12/25 01:54:15;;;;;;;16.15;8.63;;;;;;;;;;5011456;28;20017;-87
2023/12/25 01:56:41;;;;;;;24.50;11.25;;;;;;;;;;5026949;28;20061;-87
2023/12/25 01:59:06;;;;;;;22.88;10.15;;;;;;;;;;5009279;28;20120;-87
2023/12/25 02:01:31;;;;;;;18.80;8.95;;;;;;;;;;5009735;28;20025;-87
2023/12/25 02:03:57;;;;;;;18.75;8.55;;;;;;;;;;5026593;28;20113;-87
2023/12/25 02:06:22;;;;;;;22.38;9.48;;;;;;;;;;5030687;28;20025;-87
2023/12/25 02:08:48;;;;;;;18.33;7.63;;;;;;;;;;5029224;28;20018;-86
2023/12/25 02:11:13;;;;;;;14.73;8.13;;;;;;;;;;5029292;28;20071;-87
2023/12/25 02:13:38;;;;;;;21.98;6.78;;;;;;;;;;5030215;28;20064;-87
2023/12/25 02:16:04;;;;;;;16.23;6.70;;;;;;;;;;5030532;28;20091;-87
2023/12/25 02:18:29;;;;;;;13.43;7.03;;;;;;;;;;5012708;28;20009;-87
2023/12/25 02:20:55;;;;;;;16.40;7.80;;;;;;;;;;5030401;28;20037;-87
2023/12/25 02:23:22;;;;;;;13.20;6.28;;;;;;;;;;5030123;28;20029;-87
2023/12/25 02:25:57;;;;;;;15.57;7.05;;;;;;;;;;5028301;28;20025;-86
2023/12/25 02:28:23;;;;;;;15.13;7.25;;;;;;;;;;5012590;28;20442;-87
2023/12/25 02:30:48;;;;;;;19.90;8.73;;;;;;;;;;5030098;28;20033;-87
2023/12/25 02:33:14;;;;;;;16.60;8.30;;;;;;;;;;5012464;28;20017;-87
2023/12/25 02:35:39;;;;;;;15.07;8.02;;;;;;;;;;5027759;28;20492;-87
2023/12/25 02:38:04;;;;;;;16.77;7.90;;;;;;;;;;5012525;28;20101;-87
2023/12/25 02:40:30;;;;;;;16.05;7.72;;;;;;;;;;5028707;28;20442;-87
2023/12/25 02:42:55;;;;;;;12.52;6.72;;;;;;;;;;5012269;28;20022;-86
2023/12/25 02:45:20;;;;;;;15.90;6.20;;;;;;;;;;5020057;28;20029;-87
2023/12/25 02:47:46;;;;;;;14.50;7.40;;;;;;;;;;5011918;28;20037;-87
2023/12/25 02:50:11;;;;;;;13.30;6.20;;;;;;;;;;5028678;28;20109;-87
2023/12/25 02:52:36;;;;;;;8.98;5.55;;;;;;;;;;5011282;28;20640;-87
2023/12/25 02:55:02;;;;;;;12.25;6.00;;;;;;;;;;5029573;28;20029;-87
2023/12/25 02:57:28;;;;;;;9.57;4.88;;;;;;;;;;5029695;28;20036;-87
2023/12/25 02:59:53;;;;;;;11.50;5.93;;;;;;;;;;5030026;28;20056;-87
2023/12/25 03:02:18;;;;;;;15.70;7.10;;;;;;;;;;5029779;28;20422;-87
2023/12/25 03:04:43;;;;;;;14.00;6.43;;;;;;;;;;5027952;28;20157;-87
2023/12/25 03:07:10;;;;;;;14.82;6.80;;;;;;;;;;5027915;28;20399;-87
2023/12/25 03:09:36;;;;;;;15.00;6.20;;;;;;;;;;5011728;28;20028;-86
2023/12/25 03:12:01;;;;;;;16.52;7.63;;;;;;;;;;5023958;28;20029;-87
2023/12/25 03:14:27;;;;;;;12.85;6.00;;;;;;;;;;5028505;28;20382;-87
2023/12/25 03:16:52;;;;;;;12.38;5.55;;;;;;;;;;5028666;28;20028;-87
2023/12/25 03:19:17;;;;;;;13.57;6.07;;;;;;;;;;5011365;28;20077;-87
2023/12/25 03:21:44;;;;;;;14.63;7.32;;;;;;;;;;5029062;28;20040;-87
2023/12/25 03:24:09;;;;;;;22.83;9.95;;;;;;;;;;5027300;28;20018;-87
2023/12/25 03:26:34;;;;;;;17.27;8.23;;;;;;;;;;5027859;28;20017;-87
2023/12/25 03:29:00;;;;;;;23.98;10.50;;;;;;;;;;5028778;28;20387;-87
2023/12/25 03:31:25;;;;;;;27.42;9.77;;;;;;;;;;5028792;28;20109;-87
2023/12/25 03:33:50;;;;;;;19.45;9.52;;;;;;;;;;5028780;28;20033;-87
2023/12/25 03:36:16;;;;;;;24.65;11.60;;;;;;;;;;5010757;28;20068;-87
2023/12/25 03:38:41;;;;;;;11.38;6.38;;;;;;;;;;5011285;28;20067;-87
2023/12/25 03:41:07;;;;;;;13.07;7.05;;;;;;;;;;5027248;28;20546;-87
2023/12/25 03:43:32;;;;;;;16.33;6.50;;;;;;;;;;5027276;28;20100;-87
2023/12/25 03:45:57;;;;;;;13.50;5.68;;;;;;;;;;5010160;28;20072;-87
2023/12/25 03:48:23;;;;;;;15.07;6.82;;;;;;;;;;5022312;28;20254;-87
2023/12/25 03:50:48;;;;;;;16.33;7.95;;;;;;;;;;5027131;28;20025;-87
2023/12/25 03:53:14;;;;;;;19.52;8.40;;;;;;;;;;5028524;28;20022;-87
2023/12/25 03:55:39;;;;;;;21.77;9.98;;;;;;;;;;5010408;28;20079;-87
2023/12/25 03:58:04;;;;;;;24.60;11.80;;;;;;;;;;5028353;28;20044;-87
2023/12/25 04:00:30;;;;;;;21.38;10.88;;;;;;;;;;4994558;28;20121;-86
2023/12/25 04:02:58;;;;;;;21.20;9.35;;;;;;;;;;5013601;28;20017;-87
2023/12/25 04:05:24;;;;;;;22.15;8.40;;;;;;;;;;5010487;28;20029;-86
2023/12/25 04:07:49;;;;;;;15.85;6.88;;;;;;;;;;5028029;28;20040;-87
2023/12/25 04:10:15;;;;;;;17.10;7.63;;;;;;;;;;5010213;28;20561;-87
2023/12/25 04:12:40;;;;;;;17.70;7.35;;;;;;;;;;5010372;28;20404;-86
2023/12/25 04:15:06;;;;;;;23.05;9.40;;;;;;;;;;5026604;28;20453;-86
2023/12/25 04:17:31;;;;;;;18.48;8.10;;;;;;;;;;5010395;28;20025;-87
2023/12/25 04:19:57;;;;;;;16.35;6.70;;;;;;;;;;5027023;28;20120;-87
2023/12/25 04:22:23;;;;;;;18.90;7.43;;;;;;;;;;5027691;28;20410;-87
2023/12/25 04:24:48;;;;;;;13.82;7.32;;;;;;;;;;5019323;28;20025;-87
2023/12/25 04:27:13;;;;;;;20.88;9.45;;;;;;;;;;5027630;28;20487;-87
2023/12/25 04:29:39;;;;;;;20.23;10.13;;;;;;;;;;5027936;28;20064;-86
2023/12/25 04:32:04;;;;;;;17.83;8.98;;;;;;;;;;5027789;28;20036;-87
2023/12/25 04:34:29;;;;;;;23.63;10.07;;;;;;;;;;5009365;28;20013;-87
2023/12/25 04:36:55;;;;;;;24.42;11.23;;;;;;;;;;5009756;28;20409;-87
2023/12/25 04:39:21;;;;;;;25.90;11.05;;;;;;;;;;5027695;28;20026;-87
2023/12/25 04:41:46;;;;;;;16.98;8.80;;;;;;;;;;5010171;28;20038;-86
2023/12/25 04:44:11;;;;;;;21.42;8.90;;;;;;;;;;5010522;28;20048;-87
2023/12/25 04:46:39;;;;;;;17.55;9.02;;;;;;;;;;5025540;28;20022;-87
2023/12/25 04:49:05;;;;;;;17.67;8.73;;;;;;;;;;5026057;28;20527;-87
2023/12/25 04:51:30;;;;;;;18.92;8.82;;;;;;;;;;5027563;28;20140;-87
2023/12/25 04:53:56;;;;;;;14.80;6.15;;;;;;;;;;5025781;28;20021;-87
2023/12/25 04:56:21;;;;;;;14.90;7.55;;;;;;;;;;5027026;28;20419;-87
2023/12/25 04:58:46;;;;;;;17.30;8.27;;;;;;;;;;5009933;28;20107;-87
2023/12/25 05:01:12;;;;;;;21.35;10.18;;;;;;;;;;5018813;28;20032;-87
2023/12/25 05:03:37;;;;;;;31.05;13.75;;;;;;;;;;5027360;28;20032;-86
2023/12/25 05:06:02;;;;;;;30.58;14.00;;;;;;;;;;5027061;28;20116;-87
2023/12/25 05:08:27;;;;;;;22.30;10.23;;;;;;;;;;5027398;28;20018;-87
2023/12/25 05:10:53;;;;;;;9.35;5.10;;;;;;;;;;5013337;28;20024;-87
2023/12/25 05:13:18;;;;;;;20.95;8.85;;;;;;;;;;5009480;28;20032;-87
2023/12/25 05:15:44;;;;;;;17.00;7.60;;;;;;;;;;5005793;28;20050;-86
2023/12/25 05:18:09;;;;;;;13.63;5.90;;;;;;;;;;5007055;28;20465;-87
2023/12/25 05:20:34;;;;;;;27.95;11.68;;;;;;;;;;5006312;28;20046;-87
2023/12/25 05:22:59;;;;;;;27.75;13.00;;;;;;;;;;5009404;28;20108;-87
2023/12/25 05:25:25;;;;;;;40.42;18.35;;;;;;;;;;5022507;28;20030;-87
2023/12/25 05:27:50;;;;;;;25.42;11.65;;;;;;;;;;5026729;28;20065;-87
2023/12/25 05:30:15;;;;;;;22.40;9.43;;;;;;;;;;5009773;28;20026;-87
2023/12/25 05:32:41;;;;;;;26.45;11.48;;;;;;;;;;5021029;28;20028;-87
2023/12/25 05:35:07;;;;;;;28.90;13.70;;;;;;;;;;5027213;28;20030;-86
2023/12/25 05:37:32;;;;;;;35.80;15.85;;;;;;;;;;5017318;28;20033;-87
2023/12/25 05:39:57;;;;;;;32.25;16.13;;;;;;;;;;5012756;28;20030;-86
2023/12/25 05:42:23;;;;;;;38.38;20.50;;;;;;;;;;5017981;28;20086;-87
2023/12/25 05:44:48;;;;;;;31.20;17.17;;;;;;;;;;5030749;28;20694;-87
2023/12/25 05:47:13;;;;;;;37.53;19.30;;;;;;;;;;5028326;28;20498;-86
2023/12/25 05:49:39;;;;;;;43.70;22.92;;;;;;;;;;5013116;28;20083;-87
2023/12/25 05:52:04;;;;;;;44.15;23.38;;;;;;;;;;5031162;28;20081;-87
2023/12/25 05:54:29;;;;;;;59.15;30.02;;;;;;;;;;5031083;28;20044;-87
2023/12/25 05:56:55;;;;;;;47.72;26.13;;;;;;;;;;5012317;28;20014;-87
2023/12/25 05:59:20;;;;;;;45.80;22.20;;;;;;;;;;5030639;28;20108;-87
2023/12/25 06:01:45;;;;;;;32.58;15.63;;;;;;;;;;5012298;28;20418;-87
2023/12/25 06:04:12;;;;;;;23.08;11.68;;;;;;;;;;5029889;28;20495;-87
2023/12/25 06:06:37;;;;;;;17.80;8.65;;;;;;;;;;5027379;28;20029;-87
2023/12/25 06:09:02;;;;;;;25.92;12.48;;;;;;;;;;5004996;28;20017;-87
2023/12/25 06:11:28;;;;;;;28.23;13.48;;;;;;;;;;5030531;28;20032;-87
2023/12/25 06:13:53;;;;;;;48.95;19.17;;;;;;;;;;5017390;28;20026;-87
2023/12/25 06:16:18;;;;;;;55.10;24.70;;;;;;;;;;5012220;28;20029;-86
2023/12/25 06:18:45;;;;;;;62.55;27.10;;;;;;;;;;5016320;28;20021;-87
2023/12/25 06:21:12;;;;;;;51.90;23.45;;;;;;;;;;5012627;28;20562;-86
2023/12/25 06:23:38;;;;;;;38.40;17.95;;;;;;;;;;5029979;28;20052;-87
2023/12/25 06:26:03;;;;;;;42.33;22.55;;;;;;;;;;5011912;28;20149;-87
2023/12/25 06:28:29;;;;;;;41.75;24.30;;;;;;;;;;5011494;28;20032;-87
2023/12/25 06:30:54;;;;;;;52.08;27.15;;;;;;;;;;5029215;28;20022;-87
2023/12/25 06:33:19;;;;;;;38.28;21.02;;;;;;;;;;5029409;28;20048;-86
2023/12/25 06:35:44;;;;;;;96.13;43.92;;;;;;;;;;5011965;28;20095;-86
2023/12/25 06:38:12;;;;;;;132.75;63.47;;;;;;;;;;5012294;28;20033;-86
2023/12/25 06:40:37;;;;;;;47.25;30.10;;;;;;;;;;5029934;28;20025;-85
2023/12/25 06:43:02;;;;;;;177.25;117.10;;;;;;;;;;5012201;28;20033;-85
2023/12/25 06:45:28;;;;;;;41.22;26.00;;;;;;;;;;5013633;28;20409;-85
2023/12/25 06:47:53;;;;;;;135.85;83.28;;;;;;;;;;5029974;28;20017;-86
2023/12/25 06:50:18;;;;;;;81.57;50.30;;;;;;;;;;5011974;28;20057;-85
2023/12/25 06:52:43;;;;;;;74.85;55.50;;;;;;;;;;5011879;28;20018;-86
2023/12/25 06:55:09;;;;;;;45.22;24.73;;;;;;;;;;5018659;28;20017;-86
2023/12/25 06:57:35;;;;;;;44.40;24.05;;;;;;;;;;5011581;28;20100;-85
2023/12/25 07:00:00;;;;;;;41.70;23.40;;;;;;;;;;5021547;28;20051;-86
2023/12/25 07:02:25;;;;;;;33.47;17.27;;;;;;;;;;5029645;28;20136;-86
2023/12/25 07:04:51;;;;;;;35.47;16.92;;;;;;;;;;5028566;28;20025;-86
2023/12/25 07:07:16;;;;;;;32.92;18.15;;;;;;;;;;5012212;28;20479;-86
2023/12/25 07:09:43;;;;;;;32.53;17.75;;;;;;;;;;5018753;28;20120;-85
2023/12/25 07:12:08;;;;;;;21.48;13.18;;;;;;;;;;5029544;28;20013;-86
2023/12/25 07:14:34;;;;;;;28.50;17.38;;;;;;;;;;5029578;28;20156;-86
2023/12/25 07:17:00;;;;;;;48.67;29.52;;;;;;;;;;5011243;28;20017;-86
2023/12/25 07:19:25;;;;;;;46.63;24.77;;;;;;;;;;5013933;28;20032;-86
2023/12/25 07:21:50;;;;;;;82.35;53.90;;;;;;;;;;5011601;28;20014;-86
2023/12/25 07:24:16;;;;;;;80.32;45.28;;;;;;;;;;5011414;28;20030;-86
2023/12/25 07:26:42;;;;;;;73.43;40.38;;;;;;;;;;5028719;28;20032;-86
2023/12/25 07:29:07;;;;;;;80.32;42.22;;;;;;;;;;5028498;28;20025;-86
2023/12/25 07:31:33;;;;;;;49.03;27.10;;;;;;;;;;5028468;28;20071;-86
2023/12/25 07:33:58;;;;;;;59.97;35.35;;;;;;;;;;5028383;28;20009;-86
2023/12/25 07:36:23;;;;;;;72.93;36.03;;;;;;;;;;5011606;28;20045;-86
2023/12/25 07:38:48;;;;;;;80.88;40.60;;;;;;;;;;5011224;28;20426;-86
2023/12/25 07:41:14;;;;;;;58.50;29.15;;;;;;;;;;5021670;28;20067;-86
2023/12/25 07:43:39;;;;;;;42.55;22.17;;;;;;;;;;5010814;28;20032;-86
2023/12/25 07:46:05;;;;;;;38.20;23.13;;;;;;;;;;5007495;28;20037;-86
2023/12/25 07:48:30;;;;;;;36.25;23.13;;;;;;;;;;4990830;28;20022;-86
2023/12/25 07:50:56;;;;;;;34.35;18.42;;;;;;;;;;5019753;28;20211;-86
2023/12/25 07:53:21;;;;;;;45.55;25.42;;;;;;;;;;5028405;28;20021;-86
2023/12/25 07:55:46;;;;;;;30.92;17.13;;;;;;;;;;5027215;28;20032;-86
2023/12/25 07:58:13;;;;;;;38.55;19.00;;;;;;;;;;5024843;28;20036;-86
2023/12/25 08:00:39;;;;;;;23.77;11.88;;;;;;;;;;5008465;28;20457;-83
2023/12/25 08:03:04;;;;;;;29.88;15.50;;;;;;;;;;5007845;28;20033;-84
2023/12/25 08:05:29;;;;;;;25.08;13.68;;;;;;;;;;5008069;28;20030;-84
2023/12/25 08:07:55;;;;;;;28.30;15.23;;;;;;;;;;5025663;28;20247;-85
2023/12/25 08:10:20;;;;;;;28.00;13.77;;;;;;;;;;5025815;28;20022;-84
2023/12/25 08:12:45;;;;;;;26.20;13.57;;;;;;;;;;5024958;28;20082;-84
2023/12/25 08:15:13;;;;;;;18.42;9.18;;;;;;;;;;5023436;28;20018;-84
2023/12/25 08:17:40;;;;;;;18.42;9.82;;;;;;;;;;5022639;28;20026;-85
2023/12/25 08:20:06;;;;;;;12.88;6.28;;;;;;;;;;5026022;28;20025;-85
2023/12/25 08:22:31;;;;;;;23.02;13.75;;;;;;;;;;4982820;28;20045;-86
2023/12/25 08:24:56;;;;;;;25.75;13.85;;;;;;;;;;4967427;28;20034;-85
2023/12/25 08:27:22;;;;;;;20.88;11.52;;;;;;;;;;4960517;28;20042;-88
2023/12/25 08:29:47;;;;;;;64.38;27.48;;;;;;;;;;4967352;28;20030;-88
2023/12/25 08:32:12;;;;;;;25.67;15.32;;;;;;;;;;4967328;28;20046;-88
2023/12/25 08:34:39;;;;;;;24.13;13.63;;;;;;;;;;4984199;28;20438;-88
2023/12/25 08:37:04;;;;;;;18.38;10.18;;;;;;;;;;4969911;28;20571;-88
2023/12/25 08:39:29;;;;;;;22.90;13.40;;;;;;;;;;4982556;28;20105;-87
2023/12/25 08:41:56;;;;;;;26.08;14.52;;;;;;;;;;4982136;28;20458;-87
2023/12/25 08:44:23;;;;;;;12.48;7.30;;;;;;;;;;4961555;28;20030;-88
2023/12/25 08:46:48;;;;;;;30.30;14.02;;;;;;;;;;4982477;28;20484;-88
2023/12/25 08:49:14;;;;;;;18.67;10.05;;;;;;;;;;4966958;28;20113;-88
2023/12/25 08:51:39;;;;;;;24.40;13.95;;;;;;;;;;4982804;28;20041;-89
2023/12/25 08:54:04;;;;;;;13.48;7.78;;;;;;;;;;5013565;28;20749;-88
2023/12/25 08:56:29;;;;;;;24.60;14.05;;;;;;;;;;5024821;28;20029;-85
2023/12/25 08:58:57;;;;;;;17.63;10.88;;;;;;;;;;5008155;28;20078;-86
2023/12/25 09:01:25;;;;;;;75.85;44.90;;;;;;;;;;5009986;28;20025;-86
2023/12/25 09:03:50;;;;;;;41.47;24.20;;;;;;;;;;5009179;28;20025;-85
2023/12/25 09:06:16;;;;;;;12.85;6.55;;;;;;;;;;5027083;28;20501;-85
2023/12/25 09:08:41;;;;;;;22.00;12.82;;;;;;;;;;5009260;28;20289;-86
2023/12/25 09:11:07;;;;;;;13.00;7.47;;;;;;;;;;5027038;28;20123;-86
2023/12/25 09:13:33;;;;;;;18.98;9.77;;;;;;;;;;5028755;28;20046;-86
2023/12/25 09:16:00;;;;;;;51.80;37.80;;;;;;;;;;5013863;28;20021;-86
2023/12/25 09:18:25;;;;;;;42.40;17.20;;;;;;;;;;5013806;28;20040;-86
2023/12/25 09:20:51;;;;;;;30.55;13.60;;;;;;;;;;5013723;28;20104;-86
2023/12/25 09:23:18;;;;;;;12.32;6.05;;;;;;;;;;5013675;28;20122;-86
2023/12/25 09:25:43;;;;;;;71.07;37.63;;;;;;;;;;5029919;28;20025;-86
2023/12/25 09:28:08;;;;;;;40.90;22.25;;;;;;;;;;5018899;28;20036;-86
2023/12/25 09:30:34;;;;;;;10.85;5.85;;;;;;;;;;5031498;28;20090;-87
2023/12/25 09:32:59;;;;;;;17.00;9.55;;;;;;;;;;5008831;28;20060;-87
2023/12/25 09:35:24;;;;;;;16.85;9.35;;;;;;;;;;4992939;28;20044;-86
2023/12/25 09:37:49;;;;;;;25.90;12.90;;;;;;;;;;4997141;28;20105;-87
2023/12/25 09:40:15;;;;;;;28.10;14.80;;;;;;;;;;5031088;28;20538;-87
2023/12/25 09:42:40;;;;;;;19.70;11.45;;;;;;;;;;5013132;28;20025;-87
2023/12/25 09:45:06;;;;;;;33.47;20.70;;;;;;;;;;5013337;28;20026;-87
2023/12/25 09:47:32;;;;;;;25.33;14.57;;;;;;;;;;5012289;28;20440;-87
2023/12/25 09:49:57;;;;;;;12.95;5.55;;;;;;;;;;5026405;28;20065;-87
2023/12/25 09:52:24;;;;;;;27.67;15.23;;;;;;;;;;5031193;28;20053;-87
2023/12/25 09:54:49;;;;;;;14.02;7.18;;;;;;;;;;5030644;28;20029;-86
2023/12/25 09:57:16;;;;;;;16.35;7.53;;;;;;;;;;4996706;28;20024;-87
2023/12/25 09:59:42;;;;;;;13.93;6.72;;;;;;;;;;5019349;28;20091;-86
2023/12/25 10:02:07;;;;;;;18.13;10.35;;;;;;;;;;5013085;28;20037;-88
2023/12/25 10:04:34;;;;;;;14.70;6.85;;;;;;;;;;5013140;28;20032;-88
2023/12/25 10:07:00;;;;;;;15.40;6.63;;;;;;;;;;5030896;28;20072;-88
2023/12/25 10:09:25;;;;;;;13.57;5.00;;;;;;;;;;5014613;28;20474;-85
2023/12/25 10:11:50;;;;;;;28.80;15.55;;;;;;;;;;5013026;28;20025;-88
2023/12/25 10:14:16;;;;;;;37.63;19.23;;;;;;;;;;5012848;28;20021;-88
2023/12/25 10:16:41;;;;;;;37.63;20.02;;;;;;;;;;5012370;28;20014;-88
2023/12/25 10:19:06;;;;;;;26.02;13.68;;;;;;;;;;5012485;28;20396;-88
2023/12/25 10:21:44;;;;;;;17.38;7.50;;;;;;;;;;5030260;28;20025;-88
2023/12/25 10:24:11;;;;;;;23.52;14.02;;;;;;;;;;5029186;28;20414;-88
2023/12/25 10:26:36;;;;;;;25.63;13.35;;;;;;;;;;5029871;28;20036;-89
2023/12/25 10:29:11;;;;;;;18.23;9.90;;;;;;;;;;5030616;28;20017;-88
2023/12/25 10:31:37;;;;;;;10.60;5.78;;;;;;;;;;5029976;28;20022;-88
2023/12/25 10:34:03;;;;;;;21.85;14.05;;;;;;;;;;5013238;28;20399;-84
2023/12/25 10:36:28;;;;;;;18.02;9.30;;;;;;;;;;5013871;28;20043;-84
2023/12/25 10:38:53;;;;;;;20.23;12.32;;;;;;;;;;5032408;28;20032;-84
2023/12/25 10:41:20;;;;;;;21.85;13.20;;;;;;;;;;5014126;28;20030;-84
2023/12/25 10:43:56;;;;;;;22.60;10.63;;;;;;;;;;5008015;28;20175;-84
2023/12/25 10:46:22;;;;;;;20.40;9.55;;;;;;;;;;5032242;28;20324;-84
2023/12/25 10:48:49;;;;;;;14.07;7.90;;;;;;;;;;5041463;28;20441;-84
2023/12/25 10:51:25;;;;;;;30.10;16.20;;;;;;;;;;5031781;28;20045;-84
2023/12/25 10:53:50;;;;;;;19.77;8.75;;;;;;;;;;5024430;28;20021;-84
2023/12/25 10:56:17;;;;;;;16.75;8.77;;;;;;;;;;5026695;28;20506;-84
2023/12/25 10:58:44;;;;;;;25.75;10.25;;;;;;;;;;5040350;28;20052;-84
2023/12/25 11:01:09;;;;;;;30.35;15.38;;;;;;;;;;5022107;28;20463;-84
2023/12/25 11:03:35;;;;;;;13.77;6.30;;;;;;;;;;5022445;28;20010;-84
2023/12/25 11:06:00;;;;;;;11.70;8.35;;;;;;;;;;5023024;28;20025;-84
2023/12/25 11:08:25;;;;;;;13.07;7.10;;;;;;;;;;5025585;28;20537;-85
2023/12/25 11:10:51;;;;;;;15.27;7.18;;;;;;;;;;5023767;28;20061;-84
2023/12/25 11:13:16;;;;;;;17.85;5.72;;;;;;;;;;5025702;28;20033;-84
2023/12/25 11:15:42;;;;;;;23.05;10.15;;;;;;;;;;5043037;28;20018;-84
2023/12/25 11:18:09;;;;;;;21.50;8.00;;;;;;;;;;5020166;28;20036;-85
2023/12/25 11:20:35;;;;;;;33.92;13.63;;;;;;;;;;5028542;28;20463;-84
2023/12/25 11:23:01;;;;;;;62.80;34.65;;;;;;;;;;5026270;28;20022;-84
2023/12/25 11:25:32;;;;;;;13.30;7.28;;;;;;;;;;5041144;28;20029;-84
2023/12/25 11:27:58;;;;;;;16.02;6.15;;;;;;;;;;5029416;28;20451;-85
2023/12/25 11:30:24;;;;;;;13.30;4.88;;;;;;;;;;5023519;28;20026;-84
2023/12/25 11:32:50;;;;;;;37.22;21.45;;;;;;;;;;5026155;28;20511;-84
2023/12/25 11:35:23;;;;;;;17.10;6.32;;;;;;;;;;5005807;28;20072;-84
2023/12/25 11:37:49;;;;;;;16.70;9.07;;;;;;;;;;5038105;28;20032;-84
2023/12/25 11:40:14;;;;;;;13.38;5.82;;;;;;;;;;5041887;28;20061;-84
2023/12/25 11:42:41;;;;;;;49.42;25.85;;;;;;;;;;5022347;28;20338;-84
2023/12/25 11:45:09;;;;;;;12.75;5.20;;;;;;;;;;5037313;28;20442;-84
2023/12/25 11:47:47;;;;;;;11.48;5.32;;;;;;;;;;5038798;28;20026;-84
2023/12/25 11:50:13;;;;;;;21.70;11.48;;;;;;;;;;5041424;28;20104;-83
2023/12/25 11:52:53;;;;;;;11.75;6.07;;;;;;;;;;5041047;28;20010;-84
2023/12/25 11:55:20;;;;;;;11.40;6.63;;;;;;;;;;5023220;28;20268;-84
2023/12/25 11:57:45;;;;;;;14.45;7.70;;;;;;;;;;5025559;28;20550;-84
2023/12/25 12:00:23;;;;;;;10.13;5.07;;;;;;;;;;5041932;28;20293;-84
2023/12/25 12:02:50;;;;;;;11.48;3.80;;;;;;;;;;5041573;28;20025;-84
2023/12/25 12:05:16;;;;;;;10.10;3.65;;;;;;;;;;5028914;28;20056;-84
2023/12/25 12:07:42;;;;;;;12.10;4.80;;;;;;;;;;5043636;28;20026;-85
2023/12/25 12:10:08;;;;;;;12.80;5.65;;;;;;;;;;5026861;28;20025;-84
2023/12/25 12:12:33;;;;;;;10.20;5.22;;;;;;;;;;5040586;28;20018;-84
2023/12/25 12:14:59;;;;;;;9.95;4.93;;;;;;;;;;5033007;28;20109;-84
2023/12/25 12:17:25;;;;;;;8.82;4.50;;;;;;;;;;5030088;28;20026;-84
2023/12/25 12:19:51;;;;;;;12.73;6.57;;;;;;;;;;5054790;28;20029;-83
2023/12/25 12:22:18;;;;;;;13.82;6.20;;;;;;;;;;5054760;28;20017;-83
2023/12/25 12:24:43;;;;;;;12.90;6.78;;;;;;;;;;5037525;28;20585;-83
2023/12/25 12:27:10;;;;;;;13.20;6.45;;;;;;;;;;5054338;28;20009;-83
2023/12/25 12:29:35;;;;;;;8.85;4.72;;;;;;;;;;5036949;28;20005;-83
2023/12/25 12:32:01;;;;;;;7.20;3.80;;;;;;;;;;5054271;28;20047;-83
2023/12/25 12:34:26;;;;;;;13.52;6.38;;;;;;;;;;5036846;28;20724;-83
2023/12/25 12:36:59;;;;;;;11.48;5.72;;;;;;;;;;5036063;28;20052;-83
2023/12/25 12:39:25;;;;;;;9.30;4.75;;;;;;;;;;5054336;28;20002;-83
2023/12/25 12:41:50;;;;;;;8.38;5.30;;;;;;;;;;5054112;28;20064;-83
2023/12/25 12:44:15;;;;;;;10.95;5.93;;;;;;;;;;5054303;28;20021;-83
2023/12/25 12:46:40;;;;;;;17.15;8.05;;;;;;;;;;5051747;28;20474;-83
2023/12/25 12:49:07;;;;;;;14.73;7.32;;;;;;;;;;5053125;28;20006;-84
2023/12/25 12:51:32;;;;;;;10.57;6.15;;;;;;;;;;5036203;28;20012;-84
2023/12/25 12:53:58;;;;;;;21.15;10.20;;;;;;;;;;5053969;28;20009;-83
2023/12/25 12:56:23;;;;;;;21.73;9.75;;;;;;;;;;5035674;28;20041;-83
2023/12/25 12:58:48;;;;;;;16.58;9.40;;;;;;;;;;5035473;28;20546;-83
2023/12/25 13:01:15;;;;;;;14.18;8.68;;;;;;;;;;5052778;28;20017;-83
2023/12/25 13:03:41;;;;;;;7.32;4.60;;;;;;;;;;5053167;28;20441;-84
2023/12/25 13:06:07;;;;;;;14.38;5.10;;;;;;;;;;5053036;28;20482;-84
2023/12/25 13:08:34;;;;;;;9.55;6.05;;;;;;;;;;5051597;28;20010;-83
2023/12/25 13:10:59;;;;;;;10.75;5.25;;;;;;;;;;5052588;28;20029;-84
2023/12/25 13:13:26;;;;;;;10.23;5.50;;;;;;;;;;5052566;28;20185;-83
2023/12/25 13:15:51;;;;;;;9.50;4.53;;;;;;;;;;5051150;28;20038;-83
2023/12/25 13:18:16;;;;;;;13.35;7.20;;;;;;;;;;5035334;28;20034;-83
2023/12/25 13:20:42;;;;;;;13.35;6.88;;;;;;;;;;5052115;28;20026;-83
2023/12/25 13:23:07;;;;;;;17.55;7.93;;;;;;;;;;5049396;28;20017;-84
2023/12/25 13:25:32;;;;;;;21.75;10.43;;;;;;;;;;5051898;28;20056;-84
2023/12/25 13:27:58;;;;;;;15.18;8.02;;;;;;;;;;5033748;28;20021;-83
2023/12/25 13:30:24;;;;;;;15.02;7.70;;;;;;;;;;5051435;28;20069;-83
2023/12/25 13:32:49;;;;;;;17.95;9.40;;;;;;;;;;5041925;28;20049;-84
2023/12/25 13:35:14;;;;;;;23.35;12.10;;;;;;;;;;5049876;28;20407;-84
2023/12/25 13:37:39;;;;;;;17.92;9.77;;;;;;;;;;5049781;28;20025;-84
2023/12/25 13:40:06;;;;;;;18.77;8.75;;;;;;;;;;5033401;28;20078;-84
2023/12/25 13:42:31;;;;;;;10.77;6.43;;;;;;;;;;5031229;28;20036;-83
2023/12/25 13:44:57;;;;;;;24.30;10.43;;;;;;;;;;5048905;28;20017;-84
2023/12/25 13:47:23;;;;;;;23.00;9.35;;;;;;;;;;5050265;28;20005;-83
2023/12/25 13:49:48;;;;;;;24.48;14.90;;;;;;;;;;5050528;28;20028;-83
2023/12/25 13:52:14;;;;;;;26.42;14.23;;;;;;;;;;5039602;28;20494;-84
2023/12/25 13:54:39;;;;;;;19.33;7.78;;;;;;;;;;5028650;28;20495;-82
2023/12/25 13:57:04;;;;;;;23.50;13.95;;;;;;;;;;5027624;28;20029;-83
2023/12/25 13:59:30;;;;;;;31.20;17.83;;;;;;;;;;5030558;28;20025;-83
2023/12/25 14:01:55;;;;;;;34.20;18.27;;;;;;;;;;5034220;28;20472;-83
2023/12/25 14:04:20;;;;;;;38.15;23.23;;;;;;;;;;5035584;28;20018;-82
2023/12/25 14:06:45;;;;;;;25.77;15.18;;;;;;;;;;5034705;28;20082;-82
2023/12/25 14:09:11;;;;;;;19.67;10.65;;;;;;;;;;5034184;28;20056;-82
2023/12/25 14:11:36;;;;;;;21.65;10.32;;;;;;;;;;5017675;28;20604;-82
2023/12/25 14:14:02;;;;;;;24.45;12.77;;;;;;;;;;5035057;28;20036;-82